الصفحة الرئيسية
METAR-TAF:

METAR-TAF

مطار :

مطار كوتوكا الدولي

أكرا, غانا

دائرة عرض: 05-36N, خط طول: 000-10W, ارتفاع: 68 متر

مراقبة الطقس الحالي

تاريخ ووقت الإصدار 58 دقيقة قبل الساعة 11:00UTC
ريح 7 عقدة من الجنوب, الاتجاه يتراوح بين الجنوب الشرقي و الغرب
درجة الحرارة 30°درجة مئوية
الرطوبة 70%
ضغط 1013 hPa
غيوم مفككة على ارتفاع 2900 قدم
غيوم مفككة على ارتفاع 3400 قدم

METAR: DGAA 241100Z 19007KT 140V270 BKN029 BKN034 30/24 Q1013 NOSIG

زمن: 11:58 (11:58 UTC)

توقعات

تاريخ ووقت الإصدار 58 دقيقة قبل الساعة 11:00UTC
التوقعات صالحة من24 الساعة 12 UTC إلى 25 الساعة 18 UTC
ريح 12 عقدة من الجنوب
الرؤية 10 كم أو أكثر
غيوم متفرقة على ارتفاع 3000 قدم
أصبح
من 25 الساعة 01 UTC إلى 25 الساعة 03 UTC
ريح 5 عقدة من الغرب
غيوم مفككة على ارتفاع 1400 قدم
من 25 الساعة 1200 UTC
ريح 10 عقدة من الجنوب
الرؤية 10 كم أو أكثر
الغيوم لا تقل 1500 م ولا وجود لمزنة ركامية السحاب الأسود

TAF: DGAA 241100Z 2412/2518 18012KT 9999 SCT030 BECMG 2501/2503 27005KT BKN014 FM251200 19010KT CAVOK

أرصاد الطقس والتوقعات من أكثر من 4000 مطار (تقارير الطقس للمطار METAR والتنبؤ بالطقس بالمطارTAF).

المحطات المتاحة هي النقط الصفراء والحمراء على الخريطة.

حرك المؤشر فوق النقطة لمعرفة اسم المحطة.

ثم انقر لمعرفة أرصاد وتوقعات الطقس.

لتغيير الخارطة: اضغط على الأزرار الخضراء مع رمز الصليب الأسود للتكبير. على الزر الأخضر مع شرطة للتصغير، أو على الأسهم الخضراء للخرائط المجاورة.


METAR-TAF: